sensor_id;sensor_type;location;lat;lon;timestamp;P1;durP1;ratioP1;P2;durP2;ratioP2
21743;SDS011;11034;48.556;9.342;2023-04-07T14:02:35;6.70;;;3.05;;
21743;SDS011;11034;48.556;9.342;2023-04-07T14:05:04;6.38;;;3.65;;
21743;SDS011;11034;48.556;9.342;2023-04-07T14:07:32;6.32;;;3.00;;
21743;SDS011;11034;48.556;9.342;2023-04-07T14:10:00;5.60;;;3.28;;
21743;SDS011;11034;48.556;9.342;2023-04-07T14:12:28;6.82;;;3.33;;
21743;SDS011;11034;48.556;9.342;2023-04-07T14:14:56;4.40;;;3.40;;
21743;SDS011;11034;48.556;9.342;2023-04-07T14:17:24;4.60;;;3.10;;
21743;SDS011;11034;48.556;9.342;2023-04-07T14:19:54;5.95;;;3.50;;
21743;SDS011;11034;48.556;9.342;2023-04-07T14:22:22;5.22;;;3.17;;
21743;SDS011;11034;48.556;9.342;2023-04-07T14:24:50;5.28;;;2.90;;
21743;SDS011;11034;48.556;9.342;2023-04-07T14:27:18;5.45;;;3.30;;
21743;SDS011;11034;48.556;9.342;2023-04-07T14:29:47;5.90;;;2.70;;
21743;SDS011;11034;48.556;9.342;2023-04-07T14:32:15;6.18;;;3.25;;
21743;SDS011;11034;48.556;9.342;2023-04-07T14:34:43;4.80;;;3.17;;
21743;SDS011;11034;48.556;9.342;2023-04-07T14:37:13;5.15;;;2.58;;
21743;SDS011;11034;48.556;9.342;2023-04-07T14:39:43;5.78;;;3.13;;
21743;SDS011;11034;48.556;9.342;2023-04-07T14:42:27;4.05;;;2.83;;
21743;SDS011;11034;48.556;9.342;2023-04-07T14:44:55;4.88;;;2.65;;
21743;SDS011;11034;48.556;9.342;2023-04-07T14:47:25;3.08;;;2.50;;
21743;SDS011;11034;48.556;9.342;2023-04-07T14:49:53;5.78;;;2.88;;
21743;SDS011;11034;48.556;9.342;2023-04-07T14:52:23;4.25;;;2.42;;
21743;SDS011;11034;48.556;9.342;2023-04-07T14:54:51;6.68;;;2.95;;
21743;SDS011;11034;48.556;9.342;2023-04-07T14:57:19;7.93;;;3.47;;
21743;SDS011;11034;48.556;9.342;2023-04-07T14:59:47;5.32;;;2.50;;
21743;SDS011;11034;48.556;9.342;2023-04-07T15:02:15;6.40;;;2.78;;
21743;SDS011;11034;48.556;9.342;2023-04-07T15:04:43;6.05;;;2.80;;
21743;SDS011;11034;48.556;9.342;2023-04-07T15:07:12;4.82;;;2.15;;
21743;SDS011;11034;48.556;9.342;2023-04-07T15:09:42;3.33;;;2.10;;
21743;SDS011;11034;48.556;9.342;2023-04-07T15:12:10;3.60;;;2.17;;
21743;SDS011;11034;48.556;9.342;2023-04-07T15:14:38;5.40;;;2.20;;
21743;SDS011;11034;48.556;9.342;2023-04-07T15:17:07;4.45;;;2.33;;
21743;SDS011;11034;48.556;9.342;2023-04-07T15:19:34;3.30;;;2.33;;
21743;SDS011;11034;48.556;9.342;2023-04-07T15:22:03;3.95;;;2.50;;
21743;SDS011;11034;48.556;9.342;2023-04-07T15:24:31;4.95;;;2.83;;
21743;SDS011;11034;48.556;9.342;2023-04-07T15:27:00;3.83;;;1.67;;
21743;SDS011;11034;48.556;9.342;2023-04-07T15:29:28;3.30;;;1.60;;
21743;SDS011;11034;48.556;9.342;2023-04-07T15:31:56;3.97;;;1.70;;
21743;SDS011;11034;48.556;9.342;2023-04-07T15:34:24;4.18;;;1.77;;
21743;SDS011;11034;48.556;9.342;2023-04-07T15:36:52;5.13;;;1.70;;
21743;SDS011;11034;48.556;9.342;2023-04-07T15:39:20;2.97;;;1.60;;
21743;SDS011;11034;48.556;9.342;2023-04-07T15:41:49;2.67;;;1.70;;
21743;SDS011;11034;48.556;9.342;2023-04-07T15:44:18;2.40;;;1.48;;
21743;SDS011;11034;48.556;9.342;2023-04-07T15:46:46;3.63;;;1.70;;
21743;SDS011;11034;48.556;9.342;2023-04-07T15:49:14;4.85;;;1.70;;
21743;SDS011;11034;48.556;9.342;2023-04-07T15:51:50;3.38;;;1.88;;
21743;SDS011;11034;48.556;9.342;2023-04-07T15:54:18;5.57;;;1.90;;
21743;SDS011;11034;48.556;9.342;2023-04-07T15:56:46;2.83;;;1.85;;
21743;SDS011;11034;48.556;9.342;2023-04-07T15:59:14;2.65;;;1.50;;
21743;SDS011;11034;48.556;9.342;2023-04-07T16:01:44;4.78;;;2.08;;
21743;SDS011;11034;48.556;9.342;2023-04-07T16:04:12;3.28;;;1.75;;
21743;SDS011;11034;48.556;9.342;2023-04-07T16:06:40;11.13;;;8.20;;
21743;SDS011;11034;48.556;9.342;2023-04-07T16:09:08;5.80;;;3.42;;
21743;SDS011;11034;48.556;9.342;2023-04-07T16:11:36;3.28;;;2.10;;
21743;SDS011;11034;48.556;9.342;2023-04-07T16:14:04;3.92;;;1.98;;
21743;SDS011;11034;48.556;9.342;2023-04-07T16:16:34;4.68;;;2.17;;
21743;SDS011;11034;48.556;9.342;2023-04-07T16:19:07;3.05;;;1.90;;
21743;SDS011;11034;48.556;9.342;2023-04-07T16:21:35;3.53;;;2.17;;
21743;SDS011;11034;48.556;9.342;2023-04-07T16:24:04;4.38;;;2.30;;
21743;SDS011;11034;48.556;9.342;2023-04-07T16:26:32;6.60;;;2.60;;
21743;SDS011;11034;48.556;9.342;2023-04-07T16:29:00;6.45;;;2.60;;
21743;SDS011;11034;48.556;9.342;2023-04-07T16:31:28;5.35;;;2.83;;
21743;SDS011;11034;48.556;9.342;2023-04-07T16:33:56;6.30;;;3.03;;
21743;SDS011;11034;48.556;9.342;2023-04-07T16:36:26;4.80;;;2.95;;
21743;SDS011;11034;48.556;9.342;2023-04-07T16:38:54;4.75;;;3.33;;
21743;SDS011;11034;48.556;9.342;2023-04-07T16:41:22;7.68;;;3.97;;
21743;SDS011;11034;48.556;9.342;2023-04-07T16:43:51;6.85;;;3.35;;
21743;SDS011;11034;48.556;9.342;2023-04-07T16:46:19;7.22;;;3.58;;
21743;SDS011;11034;48.556;9.342;2023-04-07T16:48:51;5.50;;;3.28;;
21743;SDS011;11034;48.556;9.342;2023-04-07T16:51:19;7.15;;;2.72;;
21743;SDS011;11034;48.556;9.342;2023-04-07T16:53:48;6.57;;;3.13;;
21743;SDS011;11034;48.556;9.342;2023-04-07T16:56:17;6.30;;;3.45;;
21743;SDS011;11034;48.556;9.342;2023-04-07T16:58:46;6.68;;;3.65;;
21743;SDS011;11034;48.556;9.342;2023-04-07T17:01:15;7.90;;;3.80;;
21743;SDS011;11034;48.556;9.342;2023-04-07T17:03:44;7.75;;;3.80;;
21743;SDS011;11034;48.556;9.342;2023-04-07T17:06:14;6.65;;;3.67;;
21743;SDS011;11034;48.556;9.342;2023-04-07T17:08:42;7.00;;;4.13;;
21743;SDS011;11034;48.556;9.342;2023-04-07T17:11:11;7.30;;;4.10;;
21743;SDS011;11034;48.556;9.342;2023-04-07T17:13:39;8.50;;;4.68;;
21743;SDS011;11034;48.556;9.342;2023-04-07T17:16:11;7.20;;;3.85;;
21743;SDS011;11034;48.556;9.342;2023-04-07T17:18:40;5.15;;;4.20;;
21743;SDS011;11034;48.556;9.342;2023-04-07T17:21:08;5.78;;;4.07;;
21743;SDS011;11034;48.556;9.342;2023-04-07T17:23:35;7.85;;;4.30;;
21743;SDS011;11034;48.556;9.342;2023-04-07T17:26:03;8.52;;;4.47;;
21743;SDS011;11034;48.556;9.342;2023-04-07T17:28:33;9.45;;;5.32;;
21743;SDS011;11034;48.556;9.342;2023-04-07T17:31:01;8.77;;;5.53;;
21743;SDS011;11034;48.556;9.342;2023-04-07T17:33:29;15.15;;;6.30;;
21743;SDS011;11034;48.556;9.342;2023-04-07T17:35:57;13.30;;;6.10;;
21743;SDS011;11034;48.556;9.342;2023-04-07T17:38:28;11.15;;;6.75;;
21743;SDS011;11034;48.556;9.342;2023-04-07T17:40:56;10.38;;;5.97;;
21743;SDS011;11034;48.556;9.342;2023-04-07T17:43:25;9.80;;;5.70;;
21743;SDS011;11034;48.556;9.342;2023-04-07T17:45:55;11.52;;;6.03;;
21743;SDS011;11034;48.556;9.342;2023-04-07T17:48:23;10.57;;;6.45;;
21743;SDS011;11034;48.556;9.342;2023-04-07T17:50:51;9.82;;;6.32;;
21743;SDS011;11034;48.556;9.342;2023-04-07T17:53:19;10.02;;;6.75;;
21743;SDS011;11034;48.556;9.342;2023-04-07T17:55:47;11.52;;;5.93;;
21743;SDS011;11034;48.556;9.342;2023-04-07T17:58:16;8.13;;;5.53;;
21743;SDS011;11034;48.556;9.342;2023-04-07T18:00:45;9.20;;;5.40;;
21743;SDS011;11034;48.556;9.342;2023-04-07T18:03:15;7.50;;;5.35;;
21743;SDS011;11034;48.556;9.342;2023-04-07T18:05:45;6.72;;;4.72;;
21743;SDS011;11034;48.556;9.342;2023-04-07T18:08:13;8.07;;;4.50;;
21743;SDS011;11034;48.556;9.342;2023-04-07T18:10:41;6.15;;;4.05;;
21743;SDS011;11034;48.556;9.342;2023-04-07T18:13:09;4.50;;;2.85;;
21743;SDS011;11034;48.556;9.342;2023-04-07T18:15:37;4.68;;;3.00;;
21743;SDS011;11034;48.556;9.342;2023-04-07T18:18:05;4.30;;;2.70;;
21743;SDS011;11034;48.556;9.342;2023-04-07T18:20:34;4.18;;;2.67;;
21743;SDS011;11034;48.556;9.342;2023-04-07T18:23:03;4.55;;;2.70;;
21743;SDS011;11034;48.556;9.342;2023-04-07T18:25:33;4.22;;;2.80;;
21743;SDS011;11034;48.556;9.342;2023-04-07T18:28:01;3.58;;;2.75;;
21743;SDS011;11034;48.556;9.342;2023-04-07T18:30:29;7.63;;;4.03;;
21743;SDS011;11034;48.556;9.342;2023-04-07T18:32:57;7.30;;;3.45;;
21743;SDS011;11034;48.556;9.342;2023-04-07T18:35:26;5.07;;;3.38;;
21743;SDS011;11034;48.556;9.342;2023-04-07T18:37:55;5.57;;;2.60;;
21743;SDS011;11034;48.556;9.342;2023-04-07T18:40:24;4.25;;;2.85;;
21743;SDS011;11034;48.556;9.342;2023-04-07T18:42:55;4.65;;;3.20;;
21743;SDS011;11034;48.556;9.342;2023-04-07T18:45:23;6.57;;;2.92;;
21743;SDS011;11034;48.556;9.342;2023-04-07T18:47:51;4.35;;;3.03;;
21743;SDS011;11034;48.556;9.342;2023-04-07T18:50:19;3.75;;;2.92;;
21743;SDS011;11034;48.556;9.342;2023-04-07T18:52:47;6.10;;;3.08;;
21743;SDS011;11034;48.556;9.342;2023-04-07T18:55:17;5.75;;;2.97;;
21743;SDS011;11034;48.556;9.342;2023-04-07T18:57:45;5.03;;;2.97;;
21743;SDS011;11034;48.556;9.342;2023-04-07T19:00:14;3.33;;;2.80;;
21743;SDS011;11034;48.556;9.342;2023-04-07T19:02:42;4.50;;;3.03;;
21743;SDS011;11034;48.556;9.342;2023-04-07T19:05:10;3.88;;;2.90;;
21743;SDS011;11034;48.556;9.342;2023-04-07T19:07:38;4.55;;;3.00;;
21743;SDS011;11034;48.556;9.342;2023-04-07T19:10:07;4.88;;;3.33;;
21743;SDS011;11034;48.556;9.342;2023-04-07T19:12:37;6.40;;;3.67;;
21743;SDS011;11034;48.556;9.342;2023-04-07T19:15:05;6.72;;;3.90;;
21743;SDS011;11034;48.556;9.342;2023-04-07T19:17:34;6.00;;;3.75;;
21743;SDS011;11034;48.556;9.342;2023-04-07T19:20:03;6.68;;;4.03;;
21743;SDS011;11034;48.556;9.342;2023-04-07T19:22:31;6.80;;;4.22;;
21743;SDS011;11034;48.556;9.342;2023-04-07T19:25:00;7.30;;;4.25;;
21743;SDS011;11034;48.556;9.342;2023-04-07T19:27:28;6.93;;;4.18;;
21743;SDS011;11034;48.556;9.342;2023-04-07T19:29:57;5.47;;;4.00;;
21743;SDS011;11034;48.556;9.342;2023-04-07T19:32:25;5.32;;;3.97;;
21743;SDS011;11034;48.556;9.342;2023-04-07T19:34:54;7.85;;;4.50;;
21743;SDS011;11034;48.556;9.342;2023-04-07T19:37:23;6.40;;;4.75;;
21743;SDS011;11034;48.556;9.342;2023-04-07T19:39:51;22.75;;;10.68;;
21743;SDS011;11034;48.556;9.342;2023-04-07T19:42:28;21.67;;;10.68;;
21743;SDS011;11034;48.556;9.342;2023-04-07T19:44:58;13.40;;;6.53;;
21743;SDS011;11034;48.556;9.342;2023-04-07T19:47:27;15.05;;;7.18;;
21743;SDS011;11034;48.556;9.342;2023-04-07T19:49:55;38.10;;;14.38;;
21743;SDS011;11034;48.556;9.342;2023-04-07T19:52:23;18.13;;;8.50;;
21743;SDS011;11034;48.556;9.342;2023-04-07T19:54:51;26.80;;;13.05;;
21743;SDS011;11034;48.556;9.342;2023-04-07T19:57:19;23.23;;;14.73;;
21743;SDS011;11034;48.556;9.342;2023-04-07T19:59:48;10.25;;;9.20;;
